Time;durP1;ratioP1;P1;durP2;ratioP2;P2;SDS_P1;SDS_P2;PMS_P1;PMS_P2;Temp;Humidity;BMP_temperature;BMP_pressure;BME280_temperature;BME280_humidity;BME280_pressure;Samples;Min_cycle;Max_cycle;Signal;HPM_P1;HPM_P2
2024/01/06 00:01:55;;;;;;;12.37;11.97;;;8.00;99.90;;;;;;5123476;27;20596;-65
2024/01/06 00:04:22;;;;;;;13.07;12.57;;;8.00;99.90;;;;;;5121180;27;20211;-66
2024/01/06 00:06:48;;;;;;;14.17;13.67;;;8.00;99.90;;;;;;5130146;27;20206;-64
2024/01/06 00:09:15;;;;;;;12.97;12.57;;;8.00;99.90;;;;;;5137720;27;20205;-64
2024/01/06 00:11:42;;;;;;;12.57;12.17;;;8.00;99.90;;;;;;5125294;27;20225;-64
2024/01/06 00:14:09;;;;;;;11.77;11.37;;;7.90;99.90;;;;;;5129501;27;20566;-65
2024/01/06 00:16:37;;;;;;;12.57;12.13;;;8.00;99.90;;;;;;5126142;27;20638;-64
2024/01/06 00:19:03;;;;;;;12.30;11.90;;;8.00;99.90;;;;;;5125552;27;20194;-65
2024/01/06 00:21:30;;;;;;;13.23;12.73;;;8.00;99.90;;;;;;5126233;27;21583;-65
2024/01/06 00:23:57;;;;;;;12.60;12.20;;;8.00;99.90;;;;;;5126638;27;20205;-63
2024/01/06 00:26:24;;;;;;;12.27;11.87;;;8.00;99.90;;;;;;5127563;27;20217;-66
2024/01/06 00:28:51;;;;;;;12.60;12.20;;;7.90;99.90;;;;;;5124457;27;20259;-64
2024/01/06 00:31:18;;;;;;;13.00;12.50;;;8.00;99.90;;;;;;5127693;27;20197;-65
2024/01/06 00:33:46;;;;;;;12.33;11.90;;;8.00;99.90;;;;;;5120778;27;20289;-64
2024/01/06 00:36:13;;;;;;;12.20;11.80;;;8.00;99.90;;;;;;5128435;27;20209;-64
2024/01/06 00:38:40;;;;;;;13.20;12.70;;;8.00;99.90;;;;;;5123655;27;20209;-65
2024/01/06 00:41:06;;;;;;;13.07;12.57;;;8.00;99.90;;;;;;5127055;27;20205;-66
2024/01/06 00:43:33;;;;;;;12.83;12.43;;;8.00;99.90;;;;;;5126674;27;20582;-63
2024/01/06 00:46:00;;;;;;;12.50;12.10;;;7.90;99.90;;;;;;5124173;27;20716;-65
2024/01/06 00:48:26;;;;;;;12.83;12.43;;;7.90;99.90;;;;;;5125512;27;20212;-64
2024/01/06 00:50:54;;;;;;;13.90;13.40;;;7.90;99.90;;;;;;5124553;27;20574;-65
2024/01/06 00:53:22;;;;;;;12.57;12.17;;;7.80;99.90;;;;;;5124364;27;20229;-64
2024/01/06 00:55:49;;;;;;;13.07;12.57;;;7.80;99.90;;;;;;5119741;27;20205;-65
2024/01/06 00:58:15;;;;;;;12.47;12.00;;;7.80;99.90;;;;;;5122433;27;20202;-62
2024/01/06 01:00:42;;;;;;;13.27;12.77;;;7.80;99.90;;;;;;5137135;27;20201;-65
2024/01/06 01:03:09;;;;;;;12.17;11.77;;;7.80;99.90;;;;;;5139091;27;20228;-63
2024/01/06 01:05:35;;;;;;;11.90;11.50;;;7.80;99.90;;;;;;5141496;27;20220;-64
2024/01/06 01:08:04;;;;;;;12.63;12.13;;;7.80;99.90;;;;;;5136924;27;20197;-65
2024/01/06 01:10:31;;;;;;;12.52;12.05;;;7.70;99.90;;;;;;5140186;27;20202;-64
2024/01/06 01:12:57;;;;;;;11.55;11.15;;;7.70;99.90;;;;;;5137965;27;20218;-66
2024/01/06 01:15:24;;;;;;;12.37;11.97;;;7.70;99.90;;;;;;5143679;27;20205;-62
2024/01/06 01:17:51;;;;;;;12.47;11.97;;;7.70;99.90;;;;;;5132397;27;20220;-64
2024/01/06 01:20:18;;;;;;;11.40;11.00;;;7.70;99.90;;;;;;5124971;27;20692;-64
2024/01/06 01:22:44;;;;;;;11.47;11.07;;;7.80;99.90;;;;;;5125304;27;20230;-64
2024/01/06 01:25:12;;;;;;;12.50;12.00;;;7.70;99.90;;;;;;5125758;27;20221;-64
2024/01/06 01:27:39;;;;;;;12.17;11.67;;;7.80;99.90;;;;;;5125061;27;20208;-64
2024/01/06 01:30:07;;;;;;;12.47;12.07;;;7.80;99.90;;;;;;5124014;27;20216;-63
2024/01/06 01:32:34;;;;;;;13.30;12.80;;;7.80;99.90;;;;;;5122683;27;20922;-63
2024/01/06 01:35:00;;;;;;;13.07;12.63;;;7.70;99.90;;;;;;5127807;27;20210;-65
2024/01/06 01:37:27;;;;;;;13.73;13.23;;;7.70;99.90;;;;;;5124888;27;20212;-64
2024/01/06 01:39:54;;;;;;;11.43;11.03;;;7.60;99.90;;;;;;5126158;27;20194;-64
2024/01/06 01:42:22;;;;;;;12.63;12.20;;;7.60;99.90;;;;;;5120189;27;20714;-63
2024/01/06 01:44:48;;;;;;;12.70;12.30;;;7.60;99.90;;;;;;5117713;27;20213;-62
2024/01/06 01:47:18;;;;;;;12.00;11.60;;;7.60;99.90;;;;;;5121252;27;20200;-63
2024/01/06 01:49:46;;;;;;;12.60;12.20;;;7.50;99.90;;;;;;5124146;27;20559;-63
2024/01/06 01:52:13;;;;;;;12.73;12.30;;;7.50;99.90;;;;;;5127043;27;20248;-63
2024/01/06 01:54:41;;;;;;;11.47;11.07;;;7.50;99.90;;;;;;5121486;27;20208;-64
2024/01/06 01:57:08;;;;;;;11.57;11.18;;;7.40;99.90;;;;;;5126711;27;20282;-65
2024/01/06 01:59:36;;;;;;;12.17;11.77;;;7.50;99.90;;;;;;5119570;27;20198;-63
2024/01/06 02:02:03;;;;;;;11.75;11.35;;;7.50;99.90;;;;;;5129523;27;20237;-62
2024/01/06 02:04:30;;;;;;;12.13;11.73;;;7.50;99.90;;;;;;5127972;27;20217;-65
2024/01/06 02:06:56;;;;;;;11.80;11.30;;;7.50;99.90;;;;;;5125511;27;20221;-63
2024/01/06 02:09:26;;;;;;;12.90;12.40;;;7.40;99.90;;;;;;5111007;27;20205;-65
2024/01/06 02:11:53;;;;;;;11.73;11.33;;;7.40;99.90;;;;;;5109708;28;20226;-62
2024/01/06 02:14:20;;;;;;;11.57;11.17;;;7.40;99.90;;;;;;5111642;28;20687;-65
2024/01/06 02:16:48;;;;;;;12.43;12.03;;;7.40;99.90;;;;;;5109433;28;20293;-63
2024/01/06 02:19:17;;;;;;;11.67;11.27;;;7.40;99.90;;;;;;5112138;28;20205;-64
2024/01/06 02:21:44;;;;;;;12.83;12.33;;;7.40;99.90;;;;;;5111502;28;20614;-65
2024/01/06 02:24:12;;;;;;;12.23;11.80;;;7.40;99.90;;;;;;5111559;28;20208;-63
2024/01/06 02:26:39;;;;;;;12.10;11.70;;;7.40;99.90;;;;;;5111084;28;20280;-62
2024/01/06 02:29:06;;;;;;;12.10;11.70;;;7.30;99.90;;;;;;5110876;28;20197;-64
2024/01/06 02:31:32;;;;;;;12.33;11.90;;;7.30;99.90;;;;;;5109850;28;20222;-65
2024/01/06 02:33:59;;;;;;;12.57;12.17;;;7.20;99.90;;;;;;5110024;28;20660;-62
2024/01/06 02:36:26;;;;;;;12.63;12.23;;;7.40;99.90;;;;;;5110362;28;20305;-65
2024/01/06 02:38:52;;;;;;;13.17;12.67;;;7.40;99.90;;;;;;5110241;28;20232;-64
2024/01/06 02:41:21;;;;;;;12.30;11.82;;;7.40;99.90;;;;;;5111086;28;20206;-63
2024/01/06 02:43:47;;;;;;;12.03;11.63;;;7.50;99.90;;;;;;5110488;28;20197;-62
2024/01/06 02:46:14;;;;;;;12.43;12.03;;;7.50;99.90;;;;;;5107674;28;20225;-63
2024/01/06 02:48:41;;;;;;;12.77;12.37;;;7.50;99.90;;;;;;5107515;28;20586;-61
2024/01/06 02:51:07;;;;;;;11.90;11.50;;;7.50;99.90;;;;;;5109362;28;20198;-62
2024/01/06 02:53:34;;;;;;;11.40;11.00;;;7.50;99.90;;;;;;5111258;28;20226;-65
2024/01/06 02:56:01;;;;;;;12.80;12.30;;;7.40;99.90;;;;;;5111220;28;20198;-63
2024/01/06 02:58:29;;;;;;;11.77;11.37;;;7.40;99.90;;;;;;5113437;28;20202;-64
2024/01/06 03:00:55;;;;;;;10.88;10.48;;;7.40;99.90;;;;;;5109941;28;20194;-66
2024/01/06 03:03:22;;;;;;;11.27;10.87;;;7.40;99.90;;;;;;5110785;28;20718;-63
2024/01/06 03:05:49;;;;;;;11.60;11.20;;;7.50;99.90;;;;;;5111528;28;20221;-63
2024/01/06 03:08:16;;;;;;;11.57;11.17;;;7.50;99.90;;;;;;5112645;28;20586;-64
2024/01/06 03:10:43;;;;;;;11.60;11.20;;;7.50;99.90;;;;;;5110268;28;20684;-63
2024/01/06 03:13:09;;;;;;;11.27;10.87;;;7.50;99.90;;;;;;5110224;28;20249;-64
2024/01/06 03:15:37;;;;;;;11.13;10.73;;;7.50;99.90;;;;;;5110109;28;20673;-63
2024/01/06 03:18:05;;;;;;;11.67;11.27;;;7.60;99.90;;;;;;5109795;28;20213;-64
2024/01/06 03:20:31;;;;;;;12.27;11.87;;;7.60;99.90;;;;;;5110503;28;20376;-64
2024/01/06 03:22:58;;;;;;;12.03;11.63;;;7.50;99.90;;;;;;5110343;28;20229;-63
2024/01/06 03:25:25;;;;;;;11.93;11.53;;;7.40;99.90;;;;;;5109864;28;20194;-63
2024/01/06 03:27:51;;;;;;;11.33;10.93;;;7.30;99.90;;;;;;5110584;28;20202;-63
2024/01/06 03:30:20;;;;;;;11.67;11.27;;;7.30;99.90;;;;;;5110171;28;20206;-65
2024/01/06 03:32:48;;;;;;;11.77;11.37;;;7.30;99.90;;;;;;5109952;28;20604;-64
2024/01/06 03:35:15;;;;;;;12.60;12.10;;;7.30;99.90;;;;;;5109727;28;20209;-63
2024/01/06 03:37:42;;;;;;;11.33;10.93;;;7.20;99.90;;;;;;5109885;28;20296;-64
2024/01/06 03:40:09;;;;;;;10.93;10.53;;;7.20;99.90;;;;;;5110184;28;20298;-63
2024/01/06 03:42:37;;;;;;;11.52;11.13;;;7.20;99.90;;;;;;5109803;28;20253;-64
2024/01/06 03:45:04;;;;;;;11.57;11.17;;;7.30;99.90;;;;;;5112203;28;20198;-64
2024/01/06 03:47:31;;;;;;;11.83;11.43;;;7.40;99.90;;;;;;5113384;28;20222;-62
2024/01/06 03:49:59;;;;;;;12.20;11.80;;;7.40;99.90;;;;;;5112797;28;20205;-64
2024/01/06 03:52:26;;;;;;;12.10;11.70;;;7.40;99.90;;;;;;5111484;27;20614;-64
2024/01/06 03:54:51;;;;;;;11.40;11.00;;;7.40;99.90;;;;;;5111071;28;20202;-65
2024/01/06 03:57:18;;;;;;;11.50;11.10;;;7.40;99.90;;;;;;5113194;28;20194;-65
2024/01/06 03:59:45;;;;;;;11.23;10.82;;;7.40;99.90;;;;;;5113415;28;20209;-65
2024/01/06 04:02:11;;;;;;;11.13;10.73;;;7.40;99.90;;;;;;5110644;28;20229;-63
2024/01/06 04:04:38;;;;;;;11.47;11.07;;;7.40;99.90;;;;;;5111361;28;20669;-65
2024/01/06 04:07:06;;;;;;;11.27;10.87;;;7.40;99.90;;;;;;5113228;28;20221;-65
2024/01/06 04:09:33;;;;;;;11.70;11.30;;;7.50;99.90;;;;;;5112501;28;20228;-63
2024/01/06 04:12:00;;;;;;;11.77;11.37;;;7.40;99.90;;;;;;5113504;28;20588;-65
2024/01/06 04:14:27;;;;;;;11.73;11.33;;;7.40;99.90;;;;;;5113621;28;20597;-62
2024/01/06 04:16:55;;;;;;;12.03;11.63;;;7.50;99.90;;;;;;5112347;28;20206;-60
2024/01/06 04:19:22;;;;;;;11.77;11.37;;;7.50;99.90;;;;;;5127957;27;20280;-64
2024/01/06 04:21:48;;;;;;;11.60;11.20;;;7.50;99.90;;;;;;5126063;27;20225;-63
2024/01/06 04:24:16;;;;;;;10.67;10.27;;;7.50;99.90;;;;;;5132098;27;20255;-63
2024/01/06 04:26:44;;;;;;;11.20;10.80;;;7.60;99.90;;;;;;5122160;27;20440;-65
2024/01/06 04:29:11;;;;;;;11.67;11.27;;;7.60;99.90;;;;;;5130937;27;20250;-63
2024/01/06 04:31:38;;;;;;;10.73;10.33;;;7.50;99.90;;;;;;5128671;27;20229;-63
2024/01/06 04:34:05;;;;;;;11.17;10.77;;;7.50;99.90;;;;;;5130868;27;20199;-63
2024/01/06 04:36:31;;;;;;;10.80;10.40;;;7.50;99.90;;;;;;5132657;27;20204;-64
2024/01/06 04:38:58;;;;;;;11.20;10.80;;;7.50;99.90;;;;;;5128185;27;20670;-65
2024/01/06 04:41:26;;;;;;;11.27;10.87;;;7.50;99.90;;;;;;5129692;27;20209;-64
2024/01/06 04:43:53;;;;;;;11.47;11.07;;;7.50;99.90;;;;;;5128015;27;20561;-64
2024/01/06 04:46:19;;;;;;;11.17;10.77;;;7.60;99.90;;;;;;5131289;27;20225;-65
2024/01/06 04:48:47;;;;;;;10.73;10.33;;;7.60;99.90;;;;;;5127746;27;20680;-65
2024/01/06 04:51:13;;;;;;;10.97;10.57;;;7.60;99.90;;;;;;5122087;27;20198;-65
2024/01/06 04:53:40;;;;;;;11.13;10.73;;;7.60;99.90;;;;;;5127068;27;20208;-64
2024/01/06 04:56:07;;;;;;;11.00;10.60;;;7.60;99.90;;;;;;5126598;27;20205;-66
2024/01/06 04:58:35;;;;;;;10.33;10.03;;;7.60;99.90;;;;;;5129320;27;20197;-62
2024/01/06 05:01:03;;;;;;;10.63;10.23;;;7.60;99.90;;;;;;5128137;27;20224;-65
2024/01/06 05:03:29;;;;;;;11.23;10.83;;;7.70;99.90;;;;;;5131085;27;20248;-64
2024/01/06 05:05:55;;;;;;;11.40;11.00;;;7.70;99.90;;;;;;5126764;27;20198;-64
2024/01/06 05:08:22;;;;;;;10.77;10.37;;;7.60;99.90;;;;;;5127798;27;20202;-64
2024/01/06 05:10:49;;;;;;;11.77;11.37;;;7.70;99.90;;;;;;5127302;27;20288;-66
2024/01/06 05:13:17;;;;;;;11.57;11.17;;;7.70;99.90;;;;;;5129183;27;20711;-64
2024/01/06 05:15:45;;;;;;;11.30;10.90;;;7.70;99.90;;;;;;5127020;27;20660;-63
2024/01/06 05:18:12;;;;;;;10.80;10.40;;;7.70;99.90;;;;;;5129808;27;20233;-62
2024/01/06 05:20:40;;;;;;;11.00;10.60;;;7.70;99.90;;;;;;5130372;27;20209;-64
2024/01/06 05:23:07;;;;;;;10.97;10.57;;;7.70;99.90;;;;;;5126454;27;20274;-63
2024/01/06 05:25:34;;;;;;;10.77;10.37;;;7.80;99.90;;;;;;5126766;27;20592;-65
2024/01/06 05:28:00;;;;;;;10.50;10.10;;;7.80;99.90;;;;;;5127707;27;20420;-64
2024/01/06 05:30:27;;;;;;;11.40;11.00;;;7.80;99.90;;;;;;5128884;27;20200;-64
2024/01/06 05:32:55;;;;;;;11.67;11.27;;;7.80;99.90;;;;;;5127300;27;20225;-65
2024/01/06 05:35:22;;;;;;;12.13;11.73;;;7.80;99.90;;;;;;5129065;27;20568;-64
2024/01/06 05:37:49;;;;;;;11.93;11.53;;;7.80;99.90;;;;;;5129518;27;20626;-63
2024/01/06 05:40:16;;;;;;;11.67;11.20;;;7.80;99.90;;;;;;5126681;27;20212;-64
2024/01/06 05:42:43;;;;;;;10.90;10.50;;;7.70;99.90;;;;;;5126253;27;20306;-63
2024/01/06 05:45:11;;;;;;;12.30;11.80;;;7.70;99.90;;;;;;5128101;27;20202;-63
2024/01/06 05:47:38;;;;;;;11.40;11.00;;;7.70;99.90;;;;;;5128610;27;20217;-64
2024/01/06 05:50:09;;;;;;;11.13;10.73;;;7.70;99.90;;;;;;5129651;27;20194;-63
2024/01/06 05:52:35;;;;;;;10.90;10.50;;;7.80;99.90;;;;;;5121960;27;20274;-65
2024/01/06 05:55:02;;;;;;;11.63;11.23;;;7.70;99.90;;;;;;5129596;27;20197;-63
2024/01/06 05:57:29;;;;;;;11.57;11.17;;;7.80;99.90;;;;;;5127465;27;20200;-62
2024/01/06 05:59:56;;;;;;;11.83;11.43;;;7.80;99.90;;;;;;5129117;27;20686;-63
2024/01/06 06:02:22;;;;;;;11.33;10.93;;;7.80;99.90;;;;;;5129045;27;20248;-64
2024/01/06 06:04:49;;;;;;;11.23;10.83;;;7.80;99.90;;;;;;5127672;27;20201;-65
2024/01/06 06:07:17;;;;;;;11.10;10.70;;;7.80;99.90;;;;;;5128977;27;20220;-63
2024/01/06 06:09:46;;;;;;;11.17;10.77;;;7.80;99.90;;;;;;5124900;27;20201;-63
2024/01/06 06:12:13;;;;;;;10.90;10.50;;;7.90;99.90;;;;;;5130886;27;20220;-63
2024/01/06 06:14:40;;;;;;;11.03;10.63;;;7.90;99.90;;;;;;5127668;27;20205;-62
2024/01/06 06:17:07;;;;;;;10.40;10.03;;;7.90;99.90;;;;;;5128141;27;20205;-64
2024/01/06 06:19:34;;;;;;;10.73;10.33;;;7.90;99.90;;;;;;5129383;27;20218;-64
2024/01/06 06:22:00;;;;;;;10.63;10.23;;;7.90;99.90;;;;;;5129472;27;20224;-62
2024/01/06 06:24:28;;;;;;;10.67;10.27;;;7.90;99.90;;;;;;5128850;27;20588;-63
2024/01/06 06:26:55;;;;;;;11.70;11.30;;;7.90;99.90;;;;;;5122015;27;20700;-64
2024/01/06 06:29:22;;;;;;;11.30;10.90;;;8.00;99.90;;;;;;5130543;27;20296;-63
2024/01/06 06:31:48;;;;;;;10.90;10.50;;;7.90;99.90;;;;;;5121425;27;20312;-63
2024/01/06 06:34:15;;;;;;;10.83;10.43;;;8.00;99.90;;;;;;5131164;27;20566;-64
2024/01/06 06:36:42;;;;;;;11.60;11.20;;;7.90;99.90;;;;;;5127714;27;20204;-63
2024/01/06 06:39:09;;;;;;;10.73;10.33;;;7.90;99.90;;;;;;5126534;27;20201;-63
2024/01/06 06:41:37;;;;;;;11.30;10.90;;;7.80;99.90;;;;;;5127145;27;20224;-64
2024/01/06 06:44:04;;;;;;;11.33;10.93;;;7.80;99.90;;;;;;5126882;27;20198;-64
2024/01/06 06:46:31;;;;;;;11.13;10.73;;;7.70;99.90;;;;;;5128835;27;20209;-64
2024/01/06 06:48:58;;;;;;;11.37;10.97;;;7.60;99.90;;;;;;5125442;28;20278;-63
2024/01/06 06:51:26;;;;;;;11.03;10.63;;;7.60;99.90;;;;;;5124221;27;20286;-62
2024/01/06 06:53:53;;;;;;;11.13;10.73;;;7.50;99.90;;;;;;5127833;27;20292;-64
2024/01/06 06:56:20;;;;;;;11.70;11.30;;;7.50;99.90;;;;;;5128295;27;20209;-65
2024/01/06 06:58:48;;;;;;;12.00;11.60;;;7.40;99.90;;;;;;5127687;27;20535;-64
2024/01/06 07:01:15;;;;;;;11.87;11.47;;;7.30;99.90;;;;;;5122600;28;20197;-64
2024/01/06 07:03:41;;;;;;;11.53;11.00;;;7.30;99.90;;;;;;5130363;27;20212;-65
2024/01/06 07:06:08;;;;;;;11.83;11.43;;;7.30;99.90;;;;;;5126519;27;20628;-63
2024/01/06 07:08:35;;;;;;;12.00;11.53;;;7.30;99.90;;;;;;5126078;27;20676;-64
2024/01/06 07:11:01;;;;;;;12.40;11.90;;;7.30;99.90;;;;;;5125813;27;20287;-63
2024/01/06 07:13:28;;;;;;;11.40;11.00;;;7.30;99.90;;;;;;5122956;27;20704;-62
2024/01/06 07:15:56;;;;;;;11.43;11.03;;;7.30;99.90;;;;;;5124761;27;20201;-62
2024/01/06 07:18:24;;;;;;;11.20;10.80;;;7.30;99.90;;;;;;5124094;27;20201;-62
2024/01/06 07:20:51;;;;;;;11.33;10.93;;;7.40;99.90;;;;;;5132124;27;20585;-66
2024/01/06 07:23:18;;;;;;;11.40;11.00;;;7.50;99.90;;;;;;5123531;27;20573;-63
2024/01/06 07:25:44;;;;;;;11.17;10.77;;;7.70;99.90;;;;;;5128133;27;20205;-63
2024/01/06 07:28:11;;;;;;;11.73;11.33;;;7.60;99.90;;;;;;5127386;27;20217;-61
2024/01/06 07:30:38;;;;;;;11.93;11.47;;;7.60;99.90;;;;;;5130806;27;20217;-62
2024/01/06 07:33:06;;;;;;;11.00;10.60;;;7.70;99.90;;;;;;5127354;27;20226;-62
2024/01/06 07:35:33;;;;;;;11.90;11.50;;;7.70;99.90;;;;;;5123239;27;20655;-63
2024/01/06 07:38:00;;;;;;;11.57;11.10;;;7.70;99.90;;;;;;5124207;27;20296;-62
2024/01/06 07:40:26;;;;;;;11.27;10.87;;;7.70;99.90;;;;;;5127160;27;20578;-62
2024/01/06 07:42:53;;;;;;;11.43;11.03;;;7.70;99.90;;;;;;5122275;27;20240;-62
2024/01/06 07:45:20;;;;;;;12.03;11.53;;;7.70;99.90;;;;;;5130835;27;20212;-62
2024/01/06 07:47:46;;;;;;;11.43;11.03;;;7.70;99.90;;;;;;5125547;27;20224;-63
2024/01/06 07:50:14;;;;;;;11.03;10.63;;;7.80;99.90;;;;;;5122886;27;20203;-61
2024/01/06 07:52:41;;;;;;;11.33;10.93;;;7.80;99.90;;;;;;5125699;27;20225;-68
2024/01/06 07:55:08;;;;;;;11.47;11.03;;;7.80;99.90;;;;;;5125007;27;20645;-63
2024/01/06 07:57:35;;;;;;;11.10;10.70;;;7.80;99.90;;;;;;5128845;27;20205;-62
2024/01/06 08:00:02;;;;;;;11.60;11.20;;;7.80;99.90;;;;;;5132243;27;20217;-63
2024/01/06 08:02:29;;;;;;;11.10;10.70;;;7.60;99.90;;;;;;5132061;27;20254;-64
2024/01/06 08:04:56;;;;;;;11.47;11.07;;;7.50;99.90;;;;;;5130781;27;20193;-61
2024/01/06 08:07:25;;;;;;;11.43;11.03;;;7.50;99.90;;;;;;5124813;27;20249;-61
2024/01/06 08:09:51;;;;;;;10.97;10.57;;;7.60;99.90;;;;;;5125033;27;20584;-62
2024/01/06 08:12:18;;;;;;;11.07;10.67;;;7.70;99.90;;;;;;5131146;27;20217;-63
2024/01/06 08:14:45;;;;;;;12.10;11.50;;;7.70;99.90;;;;;;5121236;27;20212;-63
2024/01/06 08:17:12;;;;;;;10.90;10.50;;;7.80;99.90;;;;;;5120418;27;20209;-64
2024/01/06 08:19:38;;;;;;;11.33;10.93;;;7.80;99.90;;;;;;5125135;27;20792;-65
2024/01/06 08:22:05;;;;;;;11.27;10.87;;;7.80;99.90;;;;;;5129265;27;20229;-66
2024/01/06 08:24:33;;;;;;;10.90;10.50;;;7.90;99.90;;;;;;5123838;27;20973;-67
2024/01/06 08:27:00;;;;;;;11.70;11.27;;;8.00;99.90;;;;;;5128911;27;20313;-67
2024/01/06 08:29:27;;;;;;;11.00;10.60;;;8.00;99.90;;;;;;5125486;27;20581;-65
2024/01/06 08:31:54;;;;;;;11.20;10.80;;;8.00;99.90;;;;;;5126365;27;20305;-66
2024/01/06 08:34:21;;;;;;;10.93;10.53;;;8.10;99.90;;;;;;5130749;27;20193;-65
2024/01/06 08:36:48;;;;;;;11.83;11.33;;;8.10;99.90;;;;;;5116706;27;20236;-67
2024/01/06 08:39:14;;;;;;;11.27;10.77;;;8.00;99.90;;;;;;5126980;27;20194;-64
2024/01/06 08:41:42;;;;;;;11.37;10.97;;;8.10;99.90;;;;;;5121567;27;20214;-64
2024/01/06 08:44:09;;;;;;;10.77;10.37;;;8.10;99.90;;;;;;5110137;27;20268;-67
2024/01/06 08:46:36;;;;;;;11.10;10.70;;;8.00;99.90;;;;;;5109651;27;20202;-67
2024/01/06 08:49:03;;;;;;;11.10;10.70;;;8.00;99.90;;;;;;5113180;28;20230;-64
2024/01/06 08:51:30;;;;;;;11.47;10.97;;;8.00;99.90;;;;;;5113653;28;20202;-66
2024/01/06 08:53:57;;;;;;;11.43;10.93;;;8.00;99.90;;;;;;5108529;28;20206;-65
2024/01/06 08:56:24;;;;;;;11.40;10.90;;;8.00;99.90;;;;;;5115543;27;20270;-66
2024/01/06 08:58:53;;;;;;;11.00;10.60;;;8.00;99.90;;;;;;5125534;27;20703;-65
2024/01/06 09:01:20;;;;;;;11.67;11.27;;;8.00;99.90;;;;;;5127287;27;20547;-66
2024/01/06 09:03:47;;;;;;;11.17;10.77;;;8.00;99.90;;;;;;5123683;27;20292;-63
2024/01/06 09:06:14;;;;;;;11.87;11.40;;;7.90;99.90;;;;;;5127492;27;20524;-65
2024/01/06 09:08:41;;;;;;;11.47;11.07;;;8.00;99.90;;;;;;5118075;27;20696;-64
2024/01/06 09:11:08;;;;;;;12.57;12.10;;;8.00;99.90;;;;;;5128182;27;20205;-66
2024/01/06 09:13:34;;;;;;;11.93;11.53;;;8.00;99.90;;;;;;5122235;27;20261;-64
2024/01/06 09:16:03;;;;;;;11.80;11.40;;;8.10;99.90;;;;;;5124989;27;20209;-63
2024/01/06 09:18:30;;;;;;;11.47;11.07;;;8.00;99.90;;;;;;5116729;27;20291;-66
2024/01/06 09:20:56;;;;;;;11.90;11.50;;;8.10;99.90;;;;;;5124566;27;20254;-66
2024/01/06 09:23:23;;;;;;;11.93;11.53;;;8.10;99.90;;;;;;5118461;27;20218;-66
2024/01/06 09:25:51;;;;;;;11.87;11.43;;;8.20;99.90;;;;;;5122617;27;20205;-66
2024/01/06 09:28:18;;;;;;;11.80;11.40;;;8.20;99.90;;;;;;5127951;27;20214;-66
2024/01/06 09:30:45;;;;;;;11.63;11.23;;;8.10;99.90;;;;;;5128129;27;20197;-65
2024/01/06 09:33:15;;;;;;;11.87;11.37;;;8.20;99.90;;;;;;5121518;27;20309;-66
2024/01/06 09:35:43;;;;;;;11.37;10.97;;;8.20;99.90;;;;;;5122746;27;20202;-68
2024/01/06 09:38:10;;;;;;;11.20;10.80;;;8.20;99.90;;;;;;5121925;27;20288;-66
2024/01/06 09:40:43;;;;;;;11.87;11.43;;;8.20;99.90;;;;;;5123881;27;20201;-65
2024/01/06 09:43:10;;;;;;;11.37;10.97;;;8.20;99.90;;;;;;5117209;27;20222;-65
2024/01/06 09:45:36;;;;;;;11.57;11.17;;;8.20;99.90;;;;;;5113513;27;20209;-65
2024/01/06 09:48:09;;;;;;;11.50;11.10;;;8.30;99.90;;;;;;5116467;27;20218;-65
2024/01/06 09:50:39;;;;;;;11.43;11.03;;;8.30;99.90;;;;;;5114745;27;20222;-65
2024/01/06 09:53:10;;;;;;;11.83;11.43;;;8.30;99.90;;;;;;5122868;27;20695;-66
2024/01/06 09:55:38;;;;;;;11.70;11.30;;;8.40;99.90;;;;;;5116498;27;20201;-65
2024/01/06 09:58:05;;;;;;;11.90;11.50;;;8.40;99.90;;;;;;5125003;27;20201;-64
2024/01/06 10:00:33;;;;;;;11.87;11.47;;;8.40;99.90;;;;;;5121933;27;20262;-64
2024/01/06 10:03:00;;;;;;;11.13;10.73;;;8.40;99.90;;;;;;5124562;27;20217;-66
2024/01/06 10:05:27;;;;;;;11.23;10.83;;;8.50;99.90;;;;;;5119095;27;20680;-67
2024/01/06 10:07:55;;;;;;;11.27;10.87;;;8.50;99.90;;;;;;5120194;27;20680;-66
2024/01/06 10:10:24;;;;;;;11.27;10.87;;;8.50;99.90;;;;;;5124910;27;20653;-66
2024/01/06 10:12:54;;;;;;;11.70;11.30;;;8.50;99.90;;;;;;5119513;27;20218;-66
2024/01/06 10:15:21;;;;;;;12.67;12.17;;;8.60;99.90;;;;;;5127622;27;20209;-66
2024/01/06 10:17:48;;;;;;;11.13;10.73;;;8.60;99.90;;;;;;5120704;27;20289;-64
2024/01/06 10:20:15;;;;;;;11.27;10.87;;;8.60;99.90;;;;;;5120935;27;20676;-65
2024/01/06 10:22:42;;;;;;;11.40;11.00;;;8.60;99.90;;;;;;5125278;27;20225;-64
2024/01/06 10:25:13;;;;;;;11.97;11.53;;;8.60;99.90;;;;;;5124657;27;20209;-67
2024/01/06 10:27:41;;;;;;;11.80;11.40;;;8.60;99.90;;;;;;5124538;27;20201;-65
2024/01/06 10:30:10;;;;;;;11.27;10.87;;;8.60;99.90;;;;;;5134773;27;20223;-65
2024/01/06 10:32:37;;;;;;;11.43;11.03;;;8.60;99.90;;;;;;5129652;27;20237;-64
2024/01/06 10:35:06;;;;;;;12.20;11.70;;;8.50;99.90;;;;;;5126285;27;20212;-64
2024/01/06 10:37:33;;;;;;;11.23;10.73;;;8.40;99.90;;;;;;5126824;27;20304;-67
2024/01/06 10:40:08;;;;;;;12.20;11.80;;;8.40;99.90;;;;;;5130291;27;20257;-65
2024/01/06 10:42:39;;;;;;;10.67;10.27;;;8.40;99.90;;;;;;5123339;27;20247;-65
2024/01/06 10:45:09;;;;;;;11.90;11.50;;;8.30;99.90;;;;;;5128220;27;20616;-63
2024/01/06 10:47:36;;;;;;;11.60;11.20;;;8.30;99.90;;;;;;5123190;27;20678;-64
2024/01/06 10:50:04;;;;;;;11.57;11.17;;;8.30;99.90;;;;;;5118385;27;20221;-64
2024/01/06 10:52:31;;;;;;;11.50;11.03;;;8.20;99.90;;;;;;5116731;28;20298;-63
2024/01/06 10:54:59;;;;;;;10.83;10.43;;;8.30;99.90;;;;;;5121548;27;20201;-64
2024/01/06 10:57:28;;;;;;;11.30;10.90;;;8.30;99.90;;;;;;5117052;28;20289;-64
2024/01/06 10:59:58;;;;;;;11.27;10.87;;;8.30;99.90;;;;;;5121591;27;20208;-63
2024/01/06 11:02:26;;;;;;;11.20;10.80;;;8.20;99.90;;;;;;5122368;28;20245;-63
2024/01/06 11:04:53;;;;;;;11.10;10.70;;;8.20;99.90;;;;;;5120972;27;20201;-64
2024/01/06 11:07:21;;;;;;;11.33;10.93;;;8.20;99.90;;;;;;5120453;27;20222;-63
2024/01/06 11:09:51;;;;;;;13.80;13.27;;;8.20;99.90;;;;;;5120651;28;20221;-65
2024/01/06 11:12:18;;;;;;;11.40;11.00;;;8.20;99.90;;;;;;5122288;27;20669;-63
2024/01/06 11:14:46;;;;;;;11.50;11.10;;;8.10;99.90;;;;;;5121632;27;20228;-64
2024/01/06 11:17:50;;;;;;;11.00;10.60;;;7.90;99.90;;;;;;5119436;28;20214;-66
2024/01/06 11:20:16;;;;;;;11.23;10.83;;;7.90;99.90;;;;;;5121250;27;20208;-63
2024/01/06 11:22:45;;;;;;;11.43;11.03;;;7.80;99.90;;;;;;5119578;28;20995;-63
2024/01/06 11:25:16;;;;;;;12.60;12.10;;;7.70;99.90;;;;;;5114540;28;20208;-65
2024/01/06 11:27:44;;;;;;;11.47;11.07;;;7.80;99.90;;;;;;5117169;28;20231;-63
2024/01/06 11:30:21;;;;;;;11.43;11.03;;;7.70;99.90;;;;;;5122894;27;20225;-63
2024/01/06 11:32:49;;;;;;;11.80;11.40;;;7.80;99.90;;;;;;5117219;28;20221;-66
2024/01/06 11:35:17;;;;;;;13.27;12.77;;;7.80;99.90;;;;;;5119850;27;20221;-62
2024/01/06 11:37:56;;;;;;;11.60;11.20;;;7.90;99.90;;;;;;5101521;28;20206;-64
2024/01/06 11:40:25;;;;;;;11.70;11.20;;;7.90;99.90;;;;;;5114601;28;20287;-63
2024/01/06 11:42:58;;;;;;;11.63;11.23;;;7.80;99.90;;;;;;5112094;28;20233;-66
2024/01/06 11:45:26;;;;;;;12.47;11.97;;;7.90;99.90;;;;;;5110623;28;20206;-64
2024/01/06 11:47:56;;;;;;;11.80;11.40;;;7.90;99.90;;;;;;5116299;27;20228;-66
2024/01/06 11:50:23;;;;;;;11.70;11.30;;;7.90;99.90;;;;;;5116690;28;20210;-64
2024/01/06 11:52:50;;;;;;;11.43;11.03;;;7.90;99.90;;;;;;5118338;27;20221;-63
2024/01/06 11:55:19;;;;;;;12.77;12.27;;;7.90;99.90;;;;;;5112616;27;20198;-64
2024/01/06 11:57:47;;;;;;;12.23;11.73;;;8.00;99.90;;;;;;5118083;27;20201;-63
2024/01/06 12:00:14;;;;;;;11.70;11.30;;;8.00;99.90;;;;;;5116013;27;20240;-64
2024/01/06 12:02:41;;;;;;;11.60;11.20;;;8.00;99.90;;;;;;5119096;28;20333;-64
2024/01/06 12:05:14;;;;;;;13.13;12.63;;;8.00;99.90;;;;;;5111972;27;20236;-66
2024/01/06 12:07:41;;;;;;;12.03;11.63;;;8.00;99.90;;;;;;5115663;27;20966;-65
2024/01/06 12:10:09;;;;;;;11.80;11.40;;;8.00;99.90;;;;;;5123631;27;20236;-64
2024/01/06 12:12:36;;;;;;;11.53;11.13;;;8.00;99.90;;;;;;5119954;27;20595;-66
2024/01/06 12:15:03;;;;;;;13.13;12.63;;;8.00;99.90;;;;;;5123579;27;20581;-65
2024/01/06 12:17:31;;;;;;;14.23;13.67;;;7.80;99.90;;;;;;5114906;27;20336;-64
2024/01/06 12:19:59;;;;;;;13.27;12.77;;;7.80;99.90;;;;;;5111098;27;20618;-66
2024/01/06 12:22:27;;;;;;;14.20;13.70;;;7.90;99.90;;;;;;5101565;27;20261;-63
2024/01/06 12:24:54;;;;;;;12.70;12.20;;;7.80;99.90;;;;;;5112058;28;20258;-64
2024/01/06 12:27:21;;;;;;;13.53;13.03;;;7.70;99.90;;;;;;5115115;27;20289;-67
2024/01/06 12:29:48;;;;;;;12.63;12.20;;;7.80;99.90;;;;;;5114685;28;20225;-65
2024/01/06 12:32:15;;;;;;;13.27;12.77;;;7.90;99.90;;;;;;5129254;27;20222;-67
2024/01/06 12:34:41;;;;;;;13.40;12.90;;;8.00;99.90;;;;;;5126940;27;20234;-65
2024/01/06 12:37:10;;;;;;;13.10;12.60;;;8.10;99.90;;;;;;5128513;27;20682;-67